createdAt,value
2023-04-16T00:00:57.525Z,0.0000
2023-04-16T00:01:58.514Z,0.0000
2023-04-16T00:02:58.606Z,0.0000
2023-04-16T00:03:59.514Z,0.0000
2023-04-16T00:05:00.413Z,0.0000
2023-04-16T00:06:01.493Z,0.0000
2023-04-16T00:07:02.286Z,0.0000
2023-04-16T00:08:02.956Z,0.0000
2023-04-16T00:09:03.974Z,0.0000
2023-04-16T00:10:04.440Z,0.0000
2023-04-16T00:11:05.427Z,0.0000
2023-04-16T00:12:05.967Z,0.0000
2023-04-16T00:13:06.634Z,0.0000
2023-04-16T00:14:07.312Z,0.0000
2023-04-16T00:15:07.866Z,0.0000
2023-04-16T00:16:08.652Z,0.0000
2023-04-16T00:17:09.665Z,0.0000
2023-04-16T00:18:10.326Z,0.0000
2023-04-16T00:19:11.660Z,0.0000
2023-04-16T00:20:11.538Z,0.0000
2023-04-16T00:21:12.280Z,0.0000
2023-04-16T00:22:12.875Z,0.0000
2023-04-16T00:23:13.518Z,0.0000
2023-04-16T00:24:14.500Z,0.0000
2023-04-16T00:25:15.561Z,0.0000
2023-04-16T00:26:16.166Z,0.0000
2023-04-16T00:27:16.979Z,0.0000
2023-04-16T00:28:17.560Z,0.0000
2023-04-16T00:29:18.840Z,0.0000
2023-04-16T00:30:19.811Z,0.0000
2023-04-16T00:31:20.826Z,0.0000
2023-04-16T00:32:21.142Z,0.0000
2023-04-16T00:33:22.109Z,0.0000
2023-04-16T00:34:22.761Z,0.0000
2023-04-16T00:35:23.302Z,0.0000
2023-04-16T00:36:24.137Z,0.0000
2023-04-16T00:37:24.781Z,0.0000
2023-04-16T00:38:25.799Z,0.0000
2023-04-16T00:39:26.479Z,0.0000
2023-04-16T00:40:27.283Z,0.0000
2023-04-16T00:41:27.900Z,0.0000
2023-04-16T00:42:29.048Z,0.0000
2023-04-16T00:44:29.432Z,0.0000
2023-04-16T00:45:30.198Z,0.0000
2023-04-16T00:46:31.231Z,0.0000
2023-04-16T00:47:31.831Z,0.0000
2023-04-16T00:48:32.651Z,0.0000
2023-04-16T00:49:32.831Z,0.0000
2023-04-16T00:50:33.460Z,0.0000
2023-04-16T00:51:34.155Z,0.0000
2023-04-16T00:52:34.645Z,0.0000
2023-04-16T00:53:35.321Z,0.0000
2023-04-16T00:54:35.928Z,0.0000
2023-04-16T00:55:36.388Z,0.0000
2023-04-16T00:56:37.055Z,0.0000
2023-04-16T00:57:37.610Z,0.0000
2023-04-16T00:58:38.010Z,0.0000
2023-04-16T00:59:38.680Z,0.0000
2023-04-16T01:00:40.081Z,0.0000
2023-04-16T01:01:41.225Z,0.0000
2023-04-16T01:02:42.666Z,0.0000
2023-04-16T01:03:43.675Z,0.0000
2023-04-16T01:04:43.472Z,0.0000
2023-04-16T01:05:44.127Z,0.0000
2023-04-16T01:06:44.482Z,0.0000
2023-04-16T01:07:45.230Z,0.0000
2023-04-16T01:08:45.713Z,0.0000
2023-04-16T01:09:45.944Z,0.0000
2023-04-16T01:10:46.635Z,0.0000
2023-04-16T01:11:46.972Z,0.0000
2023-04-16T01:12:47.647Z,0.0000
2023-04-16T01:13:48.256Z,0.0000
2023-04-16T01:14:48.797Z,0.0000
2023-04-16T01:15:49.628Z,0.0000
2023-04-16T01:16:50.369Z,0.0000
2023-04-16T01:17:51.218Z,0.0000
2023-04-16T01:18:51.992Z,0.0000
2023-04-16T01:19:53.056Z,0.0000
2023-04-16T01:20:53.692Z,0.0000
2023-04-16T01:21:54.396Z,0.0000
2023-04-16T01:22:55.189Z,0.0000
2023-04-16T01:23:55.842Z,0.0000
2023-04-16T01:24:56.589Z,0.0000
2023-04-16T01:25:57.205Z,0.0000
2023-04-16T01:26:57.908Z,0.0000
2023-04-16T01:27:58.293Z,0.0000
2023-04-16T01:28:58.896Z,0.0000
2023-04-16T01:29:59.603Z,0.0000
2023-04-16T01:31:00.067Z,0.0000
2023-04-16T01:32:01.196Z,0.0000
2023-04-16T01:33:02.232Z,0.0000
2023-04-16T01:34:02.711Z,0.0000
2023-04-16T01:35:03.379Z,0.0000
2023-04-16T01:36:03.817Z,0.0000
2023-04-16T01:37:04.428Z,0.0000
2023-04-16T01:38:05.262Z,0.0000
2023-04-16T01:39:05.708Z,0.0000
2023-04-16T01:40:05.764Z,0.0000
2023-04-16T01:41:06.339Z,0.0000
2023-04-16T01:42:06.884Z,0.0000
2023-04-16T01:43:07.498Z,0.0000
2023-04-16T01:44:07.601Z,0.0000
2023-04-16T01:45:08.385Z,0.0000
2023-04-16T01:46:09.174Z,0.0000
2023-04-16T01:47:09.756Z,0.0000
2023-04-16T01:48:10.500Z,0.0000
2023-04-16T01:49:11.354Z,0.0000
2023-04-16T01:50:12.259Z,0.0000
2023-04-16T01:51:12.944Z,0.0000
2023-04-16T01:52:13.774Z,0.0000
2023-04-16T01:53:14.229Z,0.0000
2023-04-16T01:54:14.936Z,0.0000
2023-04-16T01:55:15.404Z,0.0000
2023-04-16T01:56:16.122Z,0.0000
2023-04-16T01:57:16.829Z,0.0000
2023-04-16T01:58:17.213Z,0.0000
2023-04-16T01:59:18.156Z,0.0000
2023-04-16T02:00:18.844Z,0.0000
2023-04-16T02:01:19.558Z,0.0000
2023-04-16T02:02:19.904Z,0.0000
2023-04-16T02:03:20.211Z,0.0000
2023-04-16T02:04:20.968Z,0.0000
2023-04-16T02:05:21.510Z,0.0000
2023-04-16T02:06:22.187Z,0.0000
2023-04-16T02:07:22.843Z,0.0000
2023-04-16T02:08:23.553Z,0.0000
2023-04-16T02:11:24.340Z,0.0000
2023-04-16T02:12:24.979Z,0.0000
2023-04-16T02:13:25.469Z,0.0000
2023-04-16T02:14:26.283Z,0.0000
2023-04-16T02:15:26.853Z,0.0000
2023-04-16T02:16:27.412Z,0.0000
2023-04-16T02:17:28.597Z,0.0000
2023-04-16T02:18:29.453Z,0.0000
2023-04-16T02:19:30.373Z,0.0000
2023-04-16T02:20:30.991Z,0.0000
2023-04-16T02:21:31.345Z,0.0000
2023-04-16T02:22:32.015Z,0.0000
2023-04-16T02:23:32.820Z,0.0000
2023-04-16T02:24:33.985Z,0.0000
2023-04-16T02:25:34.914Z,0.0000
2023-04-16T02:26:35.649Z,0.0000
2023-04-16T02:27:36.232Z,0.0000
2023-04-16T02:28:36.950Z,0.0000
2023-04-16T02:29:37.459Z,0.0000
2023-04-16T02:30:38.074Z,0.0000
2023-04-16T02:31:38.775Z,0.0000
2023-04-16T02:32:39.757Z,0.0000
2023-04-16T02:33:40.711Z,0.0000
2023-04-16T02:34:41.437Z,0.0000
2023-04-16T02:35:41.844Z,0.0000
2023-04-16T02:36:42.484Z,0.0000
2023-04-16T02:37:43.120Z,0.0000
2023-04-16T02:38:43.792Z,0.0000
2023-04-16T02:39:44.016Z,0.0000
2023-04-16T02:40:44.657Z,0.0000
2023-04-16T02:41:45.415Z,0.0000
2023-04-16T02:42:45.958Z,0.0000
2023-04-16T02:43:46.326Z,0.0000
2023-04-16T02:44:46.979Z,0.0000
2023-04-16T02:45:47.760Z,0.0000
2023-04-16T02:46:48.709Z,0.0000
2023-04-16T02:47:49.634Z,0.0000
2023-04-16T02:48:50.752Z,0.0000
2023-04-16T02:49:51.574Z,0.0000
2023-04-16T02:50:52.458Z,0.0000
2023-04-16T02:51:52.870Z,0.0000
2023-04-16T02:52:53.613Z,0.0000
2023-04-16T02:53:54.040Z,0.0000
2023-04-16T02:54:54.722Z,0.0000
2023-04-16T02:55:55.391Z,0.0000
2023-04-16T02:56:55.872Z,0.0000
2023-04-16T02:57:56.795Z,0.0000
2023-04-16T02:58:57.437Z,0.0000
2023-04-16T02:59:58.489Z,0.0000
2023-04-16T03:00:58.606Z,0.0000
2023-04-16T03:02:00.173Z,0.0000
2023-04-16T03:03:00.276Z,0.0000
2023-04-16T03:04:01.313Z,0.0000
2023-04-16T03:05:02.497Z,0.0000
2023-04-16T03:06:03.148Z,0.0000
2023-04-16T03:07:04.151Z,0.0000
2023-04-16T03:08:04.725Z,0.0000
2023-04-16T03:09:05.461Z,0.0000
2023-04-16T03:10:05.529Z,0.0000
2023-04-16T03:11:06.163Z,0.0000
2023-04-16T03:12:06.849Z,0.0000
2023-04-16T03:13:07.316Z,0.0000
2023-04-16T03:14:08.328Z,0.0000
2023-04-16T03:15:09.620Z,0.0000
2023-04-16T03:16:10.875Z,0.0000
2023-04-16T03:17:12.042Z,0.0000
2023-04-16T03:18:12.988Z,0.0000
2023-04-16T03:19:13.314Z,0.0000
2023-04-16T03:20:14.094Z,0.0000
2023-04-16T03:21:14.735Z,0.0000
2023-04-16T03:22:15.431Z,0.0000
2023-04-16T03:23:16.024Z,0.0000
2023-04-16T03:24:16.532Z,0.0000
2023-04-16T03:25:16.552Z,0.0000
2023-04-16T03:26:17.413Z,0.0000
2023-04-16T03:27:18.029Z,0.0000
2023-04-16T03:28:18.601Z,0.0000
2023-04-16T03:29:19.333Z,0.0000
2023-04-16T03:30:20.336Z,0.0000
2023-04-16T03:32:21.142Z,0.0000
2023-04-16T03:33:21.202Z,0.0000
2023-04-16T03:34:21.844Z,0.0000
2023-04-16T03:35:22.480Z,0.0000
2023-04-16T03:36:23.248Z,0.0000
2023-04-16T03:37:24.173Z,0.0000
2023-04-16T03:38:24.958Z,0.0000
2023-04-16T03:39:25.493Z,0.0000
2023-04-16T03:40:26.130Z,0.0000
2023-04-16T03:41:26.714Z,0.0000
2023-04-16T03:42:27.299Z,0.0000
2023-04-16T03:43:27.695Z,0.0000
2023-04-16T03:44:28.512Z,0.0000
2023-04-16T03:45:29.020Z,0.0000
2023-04-16T03:46:29.807Z,0.0000
2023-04-16T03:47:31.038Z,0.0000
2023-04-16T03:48:31.994Z,0.0000
2023-04-16T03:49:32.030Z,0.0000
2023-04-16T03:50:32.550Z,0.0000
2023-04-16T03:51:33.381Z,0.0000
2023-04-16T03:52:34.144Z,0.0000
2023-04-16T03:53:34.707Z,0.0000
2023-04-16T03:54:35.205Z,0.0000
2023-04-16T03:55:35.996Z,0.0000
2023-04-16T03:56:36.722Z,0.0000
2023-04-16T03:57:37.637Z,0.0000
2023-04-16T03:58:38.219Z,0.0000
2023-04-16T03:59:39.102Z,0.0000
2023-04-16T04:00:39.971Z,0.0000
2023-04-16T04:01:40.830Z,0.0000
2023-04-16T04:02:41.613Z,0.0000
2023-04-16T04:03:42.396Z,0.0000
2023-04-16T04:04:43.747Z,0.0000
2023-04-16T04:05:43.707Z,0.0000
2023-04-16T04:06:44.345Z,0.0000
2023-04-16T04:07:45.099Z,0.0000
2023-04-16T04:08:45.643Z,0.0000
2023-04-16T04:09:46.429Z,0.0000
2023-04-16T04:10:49.539Z,0.0000
2023-04-16T04:11:51.099Z,0.0000
2023-04-16T04:12:51.852Z,0.7317
2023-04-16T04:16:57.149Z,4.0000
2023-04-16T04:17:57.415Z,3.2045
2023-04-16T04:18:58.364Z,0.8810
2023-04-16T04:20:03.204Z,1.0000
2023-04-16T04:21:03.817Z,4.6444
2023-04-16T04:22:04.469Z,5.2889
2023-04-16T04:23:05.230Z,3.2000
2023-04-16T04:24:05.764Z,3.0000
2023-04-16T04:25:06.104Z,7.6667
2023-04-16T04:26:06.979Z,11.9333
2023-04-16T04:27:07.638Z,17.3333
2023-04-16T04:28:08.269Z,19.5556
2023-04-16T04:29:09.243Z,26.3333
2023-04-16T04:30:10.094Z,18.5111
2023-04-16T04:31:11.192Z,32.1556
2023-04-16T04:32:11.909Z,30.4889
2023-04-16T04:33:12.613Z,25.4222
2023-04-16T04:34:13.496Z,19.2000
2023-04-16T04:35:14.358Z,14.0000
2023-04-16T04:36:14.969Z,14.0000
2023-04-16T04:37:15.714Z,23.2667
2023-04-16T04:38:16.349Z,29.6889
2023-04-16T04:39:16.296Z,30.4318
2023-04-16T04:40:17.210Z,45.0222
2023-04-16T04:41:17.878Z,57.1111
2023-04-16T04:42:18.719Z,60.3111
2023-04-16T04:43:19.382Z,57.2667
2023-04-16T04:44:19.848Z,46.4222
2023-04-16T04:45:20.503Z,43.1778
2023-04-16T04:46:21.463Z,53.3810
2023-04-16T04:49:22.635Z,66.1778
2023-04-16T04:50:23.390Z,62.7778
2023-04-16T04:51:24.747Z,69.1395
2023-04-16T04:52:25.408Z,89.9111
2023-04-16T04:53:26.616Z,80.8667
2023-04-16T04:54:27.100Z,83.0444
2023-04-16T04:55:27.959Z,85.5556
2023-04-16T04:56:28.100Z,109.2250
2023-04-16T04:57:28.471Z,114.5333
2023-04-16T04:58:29.385Z,92.5111
2023-04-16T04:59:30.136Z,67.8000
2023-04-16T05:00:30.752Z,65.4000
2023-04-16T05:01:30.823Z,66.7273
2023-04-16T05:02:31.618Z,91.0444
2023-04-16T05:03:31.987Z,123.1628
2023-04-16T05:04:32.353Z,120.8636
2023-04-16T05:05:32.348Z,137.6136
2023-04-16T05:06:33.032Z,178.6667
2023-04-16T05:07:33.438Z,208.7556
2023-04-16T05:08:34.130Z,290.4222
2023-04-16T05:09:34.875Z,340.8889
2023-04-16T05:10:35.544Z,357.5333
2023-04-16T05:11:36.323Z,392.2444
2023-04-16T05:12:36.797Z,355.0444
2023-04-16T05:13:37.658Z,284.4445
2023-04-16T05:14:38.384Z,334.6889
2023-04-16T05:15:38.679Z,364.0444
2023-04-16T05:16:39.583Z,339.4445
2023-04-16T05:17:40.013Z,233.1364
2023-04-16T05:18:41.302Z,171.1778
2023-04-16T05:19:41.708Z,180.7500
2023-04-16T05:20:42.937Z,193.6222
2023-04-16T05:21:42.908Z,226.4773
2023-04-16T05:22:43.520Z,252.6222
2023-04-16T05:23:44.366Z,335.6667
2023-04-16T05:24:45.082Z,482.6667
2023-04-16T05:25:45.793Z,576.9778
2023-04-16T05:26:46.575Z,427.8667
2023-04-16T05:27:47.588Z,279.6667
2023-04-16T05:28:48.178Z,247.2222
2023-04-16T05:29:49.142Z,291.6889
2023-04-16T05:30:49.715Z,319.1111
2023-04-16T05:31:50.753Z,375.6222
2023-04-16T05:32:51.647Z,544.7778
2023-04-16T05:33:52.842Z,648.6000
2023-04-16T05:34:53.479Z,593.0444
2023-04-16T05:35:54.837Z,603.4889
2023-04-16T05:36:55.775Z,404.7333
2023-04-16T05:37:56.800Z,311.6222
2023-04-16T05:38:57.313Z,305.6889
2023-04-16T05:39:58.084Z,379.0222
2023-04-16T05:40:58.815Z,381.1333
2023-04-16T05:41:59.539Z,390.8000
2023-04-16T05:43:00.326Z,377.4445
2023-04-16T05:44:01.131Z,387.5333
2023-04-16T05:45:01.732Z,392.5111
2023-04-16T05:46:02.277Z,484.5581
2023-04-16T05:47:03.244Z,481.5333
2023-04-16T05:48:03.983Z,465.9737
2023-04-16T05:50:04.608Z,440.9778
2023-04-16T05:51:05.827Z,474.0889
2023-04-16T05:52:06.533Z,518.9778
2023-04-16T05:53:07.056Z,459.2222
2023-04-16T05:54:07.830Z,417.9111
2023-04-16T05:55:08.449Z,375.7333
2023-04-16T05:56:08.969Z,370.2889
2023-04-16T05:57:10.359Z,394.6667
2023-04-16T05:58:10.642Z,471.7619
2023-04-16T05:59:11.334Z,509.5555
2023-04-16T06:00:11.317Z,494.6818
2023-04-16T06:01:11.770Z,520.4000
2023-04-16T06:02:12.666Z,456.7727
2023-04-16T06:03:14.116Z,410.3636
2023-04-16T06:04:14.174Z,486.3864
2023-04-16T06:06:14.792Z,627.9556
2023-04-16T06:07:15.753Z,712.1556
2023-04-16T06:08:16.480Z,744.8889
2023-04-16T06:09:17.666Z,765.0667
2023-04-16T06:10:18.451Z,787.2889
2023-04-16T06:11:22.527Z,752.7556
2023-04-16T06:12:20.871Z,694.7180
2023-04-16T06:13:21.458Z,635.4445
2023-04-16T06:14:22.452Z,746.7333
2023-04-16T06:15:23.836Z,808.2273
2023-04-16T06:16:23.934Z,716.5000
2023-04-16T06:17:41.203Z,664.1539
2023-04-16T06:18:24.569Z,708.9412
2023-04-16T06:19:25.702Z,845.0238
2023-04-16T06:20:26.195Z,999.5610
2023-04-16T06:21:27.006Z,1000.4390
2023-04-16T06:22:27.109Z,1113.4750
2023-04-16T06:23:28.181Z,1936.5122
2023-04-16T06:24:29.132Z,2215.2683
2023-04-16T06:25:30.162Z,2097.7380
2023-04-16T06:26:31.468Z,1843.6190
2023-04-16T06:28:32.332Z,1831.2413
2023-04-16T06:29:41.131Z,2199.4211
2023-04-16T06:30:34.459Z,2213.6487
2023-04-16T06:31:34.693Z,2716.1951
2023-04-16T06:32:35.482Z,2645.4390
2023-04-16T06:33:36.699Z,2795.9285
2023-04-16T06:34:37.070Z,2781.9512
2023-04-16T06:37:41.958Z,2654.1707
2023-04-16T06:38:42.578Z,2315.1462
2023-04-16T06:39:43.638Z,2183.2620
2023-04-16T06:40:44.829Z,2382.5715
2023-04-16T06:43:48.369Z,2872.3901
2023-04-16T06:49:54.184Z,2500.9524
2023-04-16T06:57:02.299Z,2555.9268
2023-04-16T06:58:03.421Z,2118.1750
2023-04-16T06:59:03.741Z,1524.0488
2023-04-16T07:01:04.148Z,1408.2439
2023-04-16T07:02:04.399Z,1967.3414
2023-04-16T07:03:05.392Z,2451.5366
2023-04-16T07:04:05.709Z,2830.3076
2023-04-16T07:05:05.608Z,3064.2927
2023-04-16T07:06:07.276Z,3183.0952
2023-04-16T07:07:07.333Z,3168.6099
2023-04-16T07:09:07.454Z,3484.9268
2023-04-16T07:10:08.373Z,3128.1707
2023-04-16T07:11:08.542Z,2424.2439
2023-04-16T07:12:08.694Z,2255.1221
2023-04-16T07:13:09.369Z,2202.8049
2023-04-16T07:14:10.735Z,1881.8572
2023-04-16T07:15:11.327Z,1960.6586
2023-04-16T07:16:11.705Z,2072.5854
2023-04-16T07:19:14.209Z,1951.0238
2023-04-16T07:20:14.710Z,2178.2144
2023-04-16T07:21:16.141Z,1924.7317
2023-04-16T07:23:17.000Z,1412.4048
2023-04-16T07:24:17.754Z,1849.2439
2023-04-16T07:25:18.033Z,2274.1221
2023-04-16T07:26:20.164Z,2766.6001
2023-04-16T07:31:25.601Z,2729.3660
2023-04-16T07:32:26.424Z,2841.3999
2023-04-16T07:33:26.954Z,3002.5854
2023-04-16T07:34:27.894Z,2617.9756
2023-04-16T07:35:28.658Z,2395.7317
2023-04-16T07:40:30.970Z,3284.5854
2023-04-16T07:41:32.008Z,3039.5000
2023-04-16T07:45:35.350Z,2160.7144
2023-04-16T07:46:46.159Z,2903.7297
2023-04-16T07:47:37.341Z,3193.2974
2023-04-16T07:48:38.335Z,2749.0977
2023-04-16T07:49:39.302Z,2961.6829
2023-04-16T07:50:39.993Z,3389.7317
2023-04-16T07:51:40.535Z,3658.9023
2023-04-16T07:52:42.470Z,3847.6191
2023-04-16T07:53:42.724Z,3762.7073
2023-04-16T07:57:45.530Z,2928.2856
2023-04-16T07:58:46.747Z,2909.0977
2023-04-16T08:03:52.853Z,3549.4634
2023-04-16T08:04:53.564Z,2935.6155
2023-04-16T08:05:54.354Z,2969.6829
2023-04-16T08:13:04.963Z,3024.5000
2023-04-16T08:14:05.548Z,2744.8049
2023-04-16T08:15:06.136Z,2297.8779
2023-04-16T08:16:06.776Z,2355.4634
2023-04-16T08:17:08.825Z,2998.1428
2023-04-16T08:18:09.518Z,3183.0244
2023-04-16T08:19:11.038Z,4044.3096
2023-04-16T08:25:16.654Z,3721.9524
2023-04-16T08:26:17.451Z,3451.1707
2023-04-16T08:27:20.516Z,3176.2354
2023-04-16T08:28:20.563Z,2974.1707
2023-04-16T08:29:21.365Z,3435.4634
2023-04-16T08:30:21.602Z,4326.6099
2023-04-16T08:31:22.386Z,4365.5854
2023-04-16T08:32:24.421Z,4563.5000
2023-04-16T08:33:26.384Z,4728.0239
2023-04-16T08:34:28.455Z,5086.6665
2023-04-16T08:35:30.511Z,4871.8096
2023-04-16T08:36:32.828Z,4512.2617
2023-04-16T08:37:34.217Z,5746.5854
2023-04-16T08:38:35.458Z,7248.3901
2023-04-16T08:39:45.026Z,6248.3159
2023-04-16T08:40:45.494Z,5006.1396
2023-04-16T08:41:46.878Z,4823.3169
2023-04-16T08:43:49.402Z,4973.0713
2023-04-16T08:46:51.419Z,5371.0332
2023-04-16T08:47:52.128Z,6448.5229
2023-04-16T08:48:52.323Z,7042.4316
2023-04-16T08:49:53.422Z,7020.0225
2023-04-16T08:50:53.902Z,5130.0000
2023-04-16T08:51:55.253Z,5050.0684
2023-04-16T08:52:56.136Z,5228.3779
2023-04-16T08:53:56.525Z,5479.7954
2023-04-16T08:54:59.549Z,5339.8291
2023-04-16T08:55:59.124Z,4847.3794
2023-04-16T08:57:00.014Z,5053.6001
2023-04-16T08:58:01.169Z,4892.1558
2023-04-16T08:59:01.663Z,5150.4888
2023-04-16T09:00:02.284Z,5501.9111
2023-04-16T09:01:02.810Z,5736.9111
2023-04-16T09:02:03.845Z,5844.0225
2023-04-16T09:03:04.915Z,5210.6045
2023-04-16T09:04:05.709Z,4544.7803
2023-04-16T09:05:05.358Z,4374.2324
2023-04-16T09:06:06.072Z,4877.6665
2023-04-16T09:07:06.463Z,5650.6665
2023-04-16T09:08:07.030Z,6331.5332
2023-04-16T09:09:08.256Z,6574.3779
2023-04-16T09:10:08.813Z,6617.1777
2023-04-16T09:11:09.411Z,6014.5557
2023-04-16T09:12:09.983Z,5493.9775
2023-04-16T09:13:10.488Z,5903.2891
2023-04-16T09:14:11.198Z,5270.0669
2023-04-16T09:15:11.914Z,5201.0889
2023-04-16T09:18:13.976Z,5467.3184
2023-04-16T09:19:15.301Z,5978.7500
2023-04-16T09:20:16.176Z,5748.9111
2023-04-16T09:21:16.698Z,5115.1777
2023-04-16T09:22:16.972Z,5201.8335
2023-04-16T09:23:17.575Z,5405.1777
2023-04-16T09:24:18.820Z,5768.8140
2023-04-16T09:25:20.012Z,5717.6431
2023-04-16T09:28:24.339Z,6046.6279
2023-04-16T09:29:25.118Z,6263.8535
2023-04-16T09:30:25.808Z,5587.8862
2023-04-16T09:31:28.113Z,5351.3999
2023-04-16T09:32:34.734Z,5693.2104
2023-04-16T09:33:35.147Z,6373.8374
2023-04-16T09:34:36.418Z,5674.7998
2023-04-16T09:35:36.912Z,5360.0000
2023-04-16T09:36:37.649Z,5707.2222
2023-04-16T09:37:38.160Z,5765.8442
2023-04-16T09:38:38.920Z,5272.0669
2023-04-16T09:39:39.787Z,6053.1777
2023-04-16T09:40:40.665Z,6585.0225
2023-04-16T09:41:41.564Z,6299.7046
2023-04-16T09:42:42.069Z,5412.1777
2023-04-16T09:43:42.476Z,4334.5776
2023-04-16T09:44:43.251Z,4484.0000
2023-04-16T09:45:43.572Z,5216.1191
2023-04-16T09:46:43.925Z,5737.4761
2023-04-16T09:47:45.144Z,5261.4443
2023-04-16T09:48:46.009Z,5768.4888
2023-04-16T09:49:46.226Z,6218.4771
2023-04-16T09:50:46.643Z,5815.7905
2023-04-16T09:51:47.183Z,5465.5112
2023-04-16T09:52:48.200Z,5420.2446
2023-04-16T09:53:48.716Z,5272.8223
2023-04-16T09:54:49.486Z,5206.3555
2023-04-16T09:55:50.133Z,4992.6221
2023-04-16T09:56:50.711Z,4720.2446
2023-04-16T09:57:51.482Z,5035.6665
2023-04-16T09:58:52.457Z,5531.4224
2023-04-16T09:59:53.017Z,6196.9775
2023-04-16T10:00:53.256Z,6004.3999
2023-04-16T10:02:14.197Z,5181.2666
2023-04-16T10:02:54.008Z,4936.3667
2023-04-16T10:03:54.637Z,4971.8862
2023-04-16T10:04:55.574Z,4868.5229
2023-04-16T10:05:56.759Z,5080.9331
2023-04-16T10:06:57.454Z,5484.1777
2023-04-16T10:07:58.458Z,5576.0225
2023-04-16T10:08:59.820Z,6021.4771
2023-04-16T10:10:00.182Z,5919.0000
2023-04-16T10:12:01.489Z,5498.8623
2023-04-16T10:13:01.595Z,5544.0908
2023-04-16T10:14:03.314Z,5235.7417
2023-04-16T10:15:03.842Z,4849.8779
2023-04-16T10:16:05.593Z,5799.2144
2023-04-16T10:17:07.360Z,6706.2856
2023-04-16T10:18:08.382Z,6595.4048
2023-04-16T10:19:09.172Z,5614.4390
2023-04-16T10:20:09.984Z,6187.7803
2023-04-16T10:21:10.743Z,6540.2197
2023-04-16T10:22:12.712Z,6845.3096
2023-04-16T10:23:14.848Z,6866.0713
2023-04-16T10:24:16.220Z,6448.1953
2023-04-16T10:25:17.350Z,7282.4048
2023-04-16T10:31:25.476Z,7273.9756
2023-04-16T10:32:26.124Z,7429.1953
2023-04-16T10:33:27.805Z,7480.3848
2023-04-16T10:34:28.312Z,8875.8535
2023-04-16T10:35:29.370Z,9947.5117
2023-04-16T10:37:30.983Z,10129.8809
2023-04-16T10:38:31.917Z,10710.4639
2023-04-16T10:39:32.973Z,11274.0254
2023-04-16T10:40:33.946Z,11857.0244
2023-04-16T10:41:34.548Z,10627.1221
2023-04-16T10:43:36.438Z,10959.6250
2023-04-16T10:45:38.290Z,13167.6152
2023-04-16T10:46:38.456Z,13861.6338
2023-04-16T10:47:38.797Z,13249.7559
2023-04-16T10:51:48.557Z,9752.2227
2023-04-16T10:52:49.216Z,10650.7959
2023-04-16T10:53:50.245Z,11879.0713
2023-04-16T10:54:51.718Z,11899.7861
2023-04-16T10:55:53.446Z,11347.7139
2023-04-16T10:56:54.515Z,8934.0488
2023-04-16T10:57:54.879Z,8349.2197
2023-04-16T10:58:55.563Z,8589.2959
2023-04-16T10:59:56.304Z,9011.7334
2023-04-16T11:00:57.077Z,7137.3335
2023-04-16T11:01:58.627Z,8515.3867
2023-04-16T11:03:00.538Z,9253.0488
2023-04-16T11:04:00.903Z,9558.1250
2023-04-16T11:05:01.926Z,8034.5000
2023-04-16T11:07:02.989Z,9455.2441
2023-04-16T11:08:03.982Z,7116.7500
2023-04-16T11:09:05.021Z,8510.2666
2023-04-16T11:10:05.868Z,7322.6221
2023-04-16T11:11:06.888Z,7819.9331
2023-04-16T11:12:07.852Z,8561.4219
2023-04-16T11:13:08.542Z,8413.6445
2023-04-16T11:14:16.405Z,7326.3589
2023-04-16T11:15:16.686Z,5406.6362
2023-04-16T11:16:17.241Z,6752.7881
2023-04-16T11:17:22.134Z,8211.3945
2023-04-16T11:18:23.027Z,8639.1709
2023-04-16T11:19:24.155Z,9819.3936
2023-04-16T11:20:25.080Z,11051.0537
2023-04-16T11:21:25.362Z,11010.8779
2023-04-16T11:22:25.928Z,10966.0977
2023-04-16T11:26:32.397Z,8051.2324
2023-04-16T11:27:33.541Z,6958.9111
2023-04-16T11:28:35.096Z,6934.2271
2023-04-16T11:29:35.847Z,7485.2446
2023-04-16T11:30:36.555Z,6830.3408
2023-04-16T11:31:37.677Z,5123.1558
2023-04-16T11:32:38.550Z,5033.2446
2023-04-16T11:33:39.409Z,5883.8887
2023-04-16T11:34:39.978Z,5339.5557
2023-04-16T11:35:40.731Z,4548.0444
2023-04-16T11:36:41.094Z,5006.5908
2023-04-16T11:37:45.822Z,4345.9331
2023-04-16T11:40:46.124Z,3509.2327
2023-04-16T11:41:47.276Z,3860.6279
2023-04-16T11:42:52.956Z,4535.0000
2023-04-16T11:43:53.024Z,4405.4092
2023-04-16T11:44:53.663Z,3536.2444
2023-04-16T11:45:54.508Z,3340.1777
2023-04-16T11:46:58.886Z,3226.7390
2023-04-16T11:47:59.904Z,2760.7500
2023-04-16T11:49:00.736Z,2504.2222
2023-04-16T11:50:05.704Z,3066.5000
2023-04-16T11:51:06.617Z,3949.5112
2023-04-16T11:52:07.256Z,4586.4443
2023-04-16T11:53:07.763Z,5959.9556
2023-04-16T11:54:11.138Z,6450.3999
2023-04-16T11:55:08.804Z,5622.7856
2023-04-16T11:56:09.379Z,5739.4668
2023-04-16T11:57:09.936Z,6442.7334
2023-04-16T11:58:10.559Z,5853.6221
2023-04-16T11:59:11.514Z,5950.8838
2023-04-16T12:00:12.616Z,6097.3145
2023-04-16T12:01:12.775Z,6211.2500
2023-04-16T12:02:13.523Z,6410.6577
2023-04-16T12:03:14.879Z,6162.1904
2023-04-16T12:04:20.213Z,6651.5312
2023-04-16T12:05:20.495Z,6990.7729
2023-04-16T12:06:22.228Z,7141.3555
2023-04-16T12:07:21.374Z,7618.5815
2023-04-16T12:08:22.124Z,7956.4668
2023-04-16T12:09:23.551Z,8188.8999
2023-04-16T12:10:25.581Z,8457.9521
2023-04-16T12:11:27.246Z,8534.9766
2023-04-16T12:12:27.988Z,8720.6338
2023-04-16T12:13:27.918Z,8920.9756
2023-04-16T12:14:28.080Z,9278.4395
2023-04-16T12:15:29.894Z,9295.4414
2023-04-16T12:16:31.162Z,9599.6826
2023-04-16T12:17:31.435Z,9692.3418
2023-04-16T12:18:31.544Z,9750.7432
2023-04-16T12:19:32.049Z,9847.7559
2023-04-16T12:20:33.612Z,9863.7861
2023-04-16T12:21:35.098Z,9684.8809
2023-04-16T12:22:36.857Z,9398.0732
2023-04-16T12:23:35.843Z,9040.4502
2023-04-16T12:27:42.517Z,8062.8140
2023-04-16T12:28:44.193Z,7435.6191
2023-04-16T12:29:44.952Z,7587.1953
2023-04-16T12:32:46.296Z,7092.7075
2023-04-16T12:33:47.168Z,7704.3335
2023-04-16T12:34:49.863Z,7798.8569
2023-04-16T12:35:49.986Z,7226.4248
2023-04-16T12:36:51.348Z,6918.6343
2023-04-16T12:38:52.620Z,7624.5122
2023-04-16T12:39:53.259Z,8671.4746
2023-04-16T12:40:54.022Z,10062.0244
2023-04-16T12:45:00.487Z,12764.8135
2023-04-16T12:50:03.478Z,10853.0000
2023-04-16T12:51:04.324Z,10423.8535
2023-04-16T12:52:04.459Z,9941.1953
2023-04-16T12:53:06.162Z,9503.6094
2023-04-16T12:54:07.114Z,9128.3633
2023-04-16T12:55:06.476Z,8627.7500
2023-04-16T12:56:07.234Z,8865.9111
2023-04-16T12:57:08.545Z,9021.0889
2023-04-16T12:58:11.886Z,8921.4004
2023-04-16T12:59:10.531Z,8487.3330
2023-04-16T13:00:10.416Z,8199.4316
2023-04-16T13:01:11.232Z,8188.6665
2023-04-16T13:02:11.836Z,8062.1953
2023-04-16T13:03:14.240Z,8484.2383
2023-04-16T13:04:14.717Z,8928.0000
2023-04-16T13:05:14.764Z,8853.6748
2023-04-16T13:08:17.540Z,9767.1709
2023-04-16T13:09:18.920Z,9573.7070
2023-04-16T13:10:19.550Z,8359.3662
2023-04-16T13:11:20.278Z,7563.5122
2023-04-16T13:14:22.271Z,7107.7617
2023-04-16T13:15:23.144Z,7407.7500
2023-04-16T13:16:23.503Z,7214.7319
2023-04-16T13:17:25.033Z,6975.9048
2023-04-16T13:18:25.153Z,6773.9023
2023-04-16T13:19:26.204Z,6481.9756
2023-04-16T13:20:27.386Z,6097.0713
2023-04-16T13:21:29.067Z,5659.5713
2023-04-16T13:22:29.872Z,5305.2441
2023-04-16T13:24:30.570Z,4737.0000
2023-04-16T13:25:32.090Z,4314.8223
2023-04-16T13:26:32.356Z,3819.9319
2023-04-16T13:27:34.060Z,4180.8809
2023-04-16T13:28:35.984Z,4690.2793
2023-04-16T13:29:35.993Z,4561.5249
2023-04-16T13:30:36.521Z,4334.6924
2023-04-16T13:31:37.777Z,4130.6343
2023-04-16T13:32:37.845Z,4056.5366
2023-04-16T13:34:38.610Z,4296.9067
2023-04-16T13:42:48.459Z,8204.9756
2023-04-16T13:43:48.677Z,8867.5117
2023-04-16T13:49:55.348Z,10076.6582
2023-04-16T13:50:55.947Z,10153.1465
2023-04-16T13:51:57.375Z,10430.7314
2023-04-16T13:53:57.545Z,10689.2002
2023-04-16T13:55:01.341Z,10495.7617
2023-04-16T13:56:02.562Z,11198.3574
2023-04-16T13:57:04.262Z,11890.5713
2023-04-16T13:58:05.002Z,12164.4150
2023-04-16T13:59:07.082Z,12015.6670
2023-04-16T14:00:08.023Z,11441.3848